Time;durP1;ratioP1;P1;durP2;ratioP2;P2;SDS_P1;SDS_P2;PMS_P1;PMS_P2;Temp;Humidity;BMP_temperature;BMP_pressure;BME280_temperature;BME280_humidity;BME280_pressure;Samples;Min_cycle;Max_cycle;Signal;HPM_P1;HPM_P2
2021/03/18 00:00:27;;;;;;;29.58;8.35;;;5.90;99.90;;;;;;5057406;28;20485;-67
2021/03/18 00:02:53;;;;;;;34.05;9.00;;;5.80;99.90;;;;;;5057435;28;20090;-67
2021/03/18 00:05:19;;;;;;;;;;;5.80;99.90;;;;;;5058066;28;20021;-67
2021/03/18 00:07:45;;;;;;;31.27;8.27;;;5.80;99.90;;;;;;5057201;28;19905;-68
2021/03/18 00:10:10;;;;;;;;;;;5.70;99.90;;;;;;5058504;28;20068;-67
2021/03/18 00:12:36;;;;;;;39.42;9.40;;;5.80;99.90;;;;;;5057542;28;19909;-67
2021/03/18 00:15:05;;;;;;;;;;;5.90;99.90;;;;;;5057888;28;20559;-67
2021/03/18 00:17:31;;;;;;;36.67;8.35;;;5.70;99.90;;;;;;5057197;28;19904;-67
2021/03/18 00:19:56;;;;;;;;;;;5.70;99.90;;;;;;5057826;28;20032;-67
2021/03/18 00:22:22;;;;;;;33.55;7.88;;;5.70;99.90;;;;;;5056904;28;19920;-67
2021/03/18 00:24:48;;;;;;;;;;;5.80;99.90;;;;;;5057785;28;20040;-67
2021/03/18 00:27:14;;;;;;;18.02;6.78;;;5.80;99.90;;;;;;5057308;28;19912;-67
2021/03/18 00:29:39;;;;;;;;;;;5.70;99.90;;;;;;5057400;28;20052;-67
2021/03/18 00:32:08;;;;;;;24.15;7.22;;;5.70;99.90;;;;;;5057447;28;19911;-67
2021/03/18 00:34:34;;;;;;;27.60;7.82;;;5.70;99.90;;;;;;5054481;28;20025;-67
2021/03/18 00:37:00;;;;;;;;;;;5.70;99.90;;;;;;5057288;28;20029;-68
2021/03/18 00:39:26;;;;;;;28.35;7.57;;;5.60;99.90;;;;;;5057077;28;19915;-67
2021/03/18 00:41:51;;;;;;;;;;;5.60;99.90;;;;;;5057492;28;20032;-68
2021/03/18 00:44:17;;;;;;;21.90;7.07;;;5.50;99.90;;;;;;5057062;28;19955;-67
2021/03/18 00:46:43;;;;;;;;;;;5.40;99.90;;;;;;5057536;28;20045;-67
2021/03/18 00:49:09;;;;;;;28.70;6.60;;;5.50;99.90;;;;;;5057047;28;20403;-67
2021/03/18 00:51:34;;;;;;;;;;;5.50;99.90;;;;;;5057262;28;20029;-67
2021/03/18 00:54:01;;;;;;;25.73;7.20;;;5.40;99.90;;;;;;5057189;28;19958;-67
2021/03/18 00:56:27;;;;;;;16.95;6.20;;;5.40;99.90;;;;;;5055698;28;20846;-67
2021/03/18 00:58:54;;;;;;;23.23;7.47;;;5.40;99.90;;;;;;5056705;28;20029;-68
2021/03/18 01:01:23;;;;;;;17.58;5.75;;;5.30;99.90;;;;;;5056913;28;20449;-67
2021/03/18 01:03:49;;;;;;;23.27;6.18;;;5.30;99.90;;;;;;5056857;28;20482;-67
2021/03/18 01:06:16;;;;;;;;;;;5.20;99.90;;;;;;5057383;28;20021;-68
2021/03/18 01:08:42;;;;;;;;;;;5.40;99.90;;;;;;5061115;28;19909;-67
2021/03/18 01:11:10;;;;;;;12.20;5.60;;;5.10;99.90;;;;;;5060874;28;19912;-67
2021/03/18 01:13:40;;;;;;;20.60;6.13;;;5.10;99.90;;;;;;5059317;28;20025;-67
2021/03/18 01:16:12;;;;;;;21.92;6.03;;;5.20;99.90;;;;;;5060685;28;20083;-67
2021/03/18 01:18:46;;;;;;;14.15;5.65;;;5.00;99.90;;;;;;5060567;28;20028;-67
2021/03/18 01:21:12;;;;;;;22.45;6.35;;;4.90;99.90;;;;;;5060115;28;20028;-67
2021/03/18 01:23:39;;;;;;;19.50;6.20;;;5.10;99.90;;;;;;5060615;28;20021;-67
2021/03/18 01:26:05;;;;;;;13.60;5.18;;;5.00;99.90;;;;;;5060480;28;20040;-68
2021/03/18 01:28:33;;;;;;;19.27;6.70;;;4.90;99.90;;;;;;5060526;28;20028;-67
2021/03/18 01:30:59;;;;;;;22.52;6.53;;;4.80;99.90;;;;;;5054077;28;20021;-67
2021/03/18 01:33:25;;;;;;;21.35;5.95;;;4.70;99.90;;;;;;5060710;28;20404;-67
2021/03/18 01:35:52;;;;;;;16.35;5.30;;;4.80;99.90;;;;;;5056761;28;20021;-68
2021/03/18 01:38:18;;;;;;;25.35;6.03;;;5.00;99.90;;;;;;5060071;28;20025;-68
2021/03/18 01:40:44;;;;;;;;;;;4.40;99.90;;;;;;5060573;28;20362;-68
2021/03/18 01:43:10;;;;;;;18.40;6.55;;;4.40;99.90;;;;;;5059027;28;19908;-68
2021/03/18 01:45:37;;;;;;;12.57;5.68;;;4.60;99.90;;;;;;5060100;28;20814;-68
2021/03/18 01:48:04;;;;;;;15.30;5.20;;;4.40;99.90;;;;;;5058807;28;20561;-67
2021/03/18 01:50:32;;;;;;;23.60;5.88;;;4.30;99.90;;;;;;5059972;28;20108;-68
2021/03/18 01:52:59;;;;;;;24.88;5.55;;;4.40;99.90;;;;;;5059727;28;20025;-67
2021/03/18 01:55:34;;;;;;;17.85;5.70;;;4.40;99.90;;;;;;5059871;28;20112;-68
2021/03/18 01:58:00;;;;;;;17.10;5.85;;;4.30;99.90;;;;;;5060298;28;20025;-67
2021/03/18 02:00:28;;;;;;;13.43;5.50;;;4.50;99.90;;;;;;5059658;28;20072;-68
2021/03/18 02:02:55;;;;;;;17.80;5.30;;;4.20;99.90;;;;;;5059882;28;20025;-68
2021/03/18 02:05:21;;;;;;;16.00;6.53;;;4.20;99.90;;;;;;5059637;28;20013;-68
2021/03/18 02:07:51;;;;;;;;;;;4.30;99.90;;;;;;5059859;28;20104;-68
2021/03/18 02:10:17;;;;;;;14.90;5.57;;;4.30;99.90;;;;;;5059608;28;20355;-68
2021/03/18 02:12:43;;;;;;;11.60;4.20;;;4.20;99.90;;;;;;5059685;28;20033;-68
2021/03/18 02:15:09;;;;;;;;;;;4.10;99.90;;;;;;5059987;28;20135;-68
2021/03/18 02:17:57;;;;;;;15.90;4.72;;;4.20;99.90;;;;;;5059128;28;19905;-68
2021/03/18 02:20:51;;;;;;;14.07;4.90;;;4.00;99.90;;;;;;5059386;28;20028;-68
2021/03/18 02:23:41;;;;;;;9.00;4.82;;;3.90;99.90;;;;;;5058974;28;20036;-68
2021/03/18 02:26:29;;;;;;;13.40;4.82;;;3.80;99.90;;;;;;5058060;28;20397;-68
2021/03/18 02:29:01;;;;;;;26.58;7.75;;;3.80;99.90;;;;;;5059226;28;20074;-67
2021/03/18 02:31:52;;;;;;;19.40;5.50;;;4.10;99.90;;;;;;5059200;28;20479;-68
2021/03/18 02:34:40;;;;;;;13.40;4.63;;;3.60;99.90;;;;;;5055473;28;20022;-68
2021/03/18 02:37:10;;;;;;;15.05;3.85;;;3.80;99.90;;;;;;5057496;28;20017;-68
2021/03/18 02:39:43;;;;;;;9.93;3.40;;;3.70;99.90;;;;;;5058968;28;20025;-68
2021/03/18 02:42:16;;;;;;;9.70;4.28;;;3.80;99.90;;;;;;5059088;28;20119;-68
2021/03/18 02:44:45;;;;;;;9.70;3.95;;;3.60;99.90;;;;;;5059007;28;20051;-68
2021/03/18 02:47:12;;;;;;;16.55;4.95;;;3.60;99.90;;;;;;5059013;28;20048;-68
2021/03/18 02:49:42;;;;;;;11.40;4.15;;;3.40;99.90;;;;;;5059017;28;20382;-67
2021/03/18 02:52:11;;;;;;;6.55;4.03;;;3.40;99.90;;;;;;5058621;28;20095;-68
2021/03/18 02:54:38;;;;;;;8.88;3.67;;;3.20;99.90;;;;;;5059127;28;20079;-68
2021/03/18 02:57:08;;;;;;;8.13;3.97;;;3.20;99.90;;;;;;5058769;28;20025;-68
2021/03/18 02:59:37;;;;;;;11.48;4.03;;;3.00;99.90;;;;;;5058690;28;20049;-68
2021/03/18 03:02:17;;;;;;;14.63;6.32;;;3.10;99.90;;;;;;5058724;28;20029;-68
2021/03/18 03:04:44;;;;;;;11.27;5.25;;;3.00;99.90;;;;;;5058737;28;20029;-68
2021/03/18 03:07:12;;;;;;;8.27;3.95;;;3.10;99.90;;;;;;5058179;28;20056;-68
2021/03/18 03:09:43;;;;;;;8.48;4.30;;;3.50;99.90;;;;;;5058625;28;20108;-68
2021/03/18 03:12:10;;;;;;;21.48;6.63;;;2.70;99.90;;;;;;5058392;28;20032;-68
2021/03/18 03:14:39;;;;;;;11.52;5.07;;;2.90;99.90;;;;;;5058604;28;20028;-68
2021/03/18 03:17:06;;;;;;;10.02;4.18;;;2.80;99.90;;;;;;5058449;28;20029;-68
2021/03/18 03:19:41;;;;;;;14.55;4.45;;;3.00;99.90;;;;;;5058401;28;20060;-68
2021/03/18 03:22:08;;;;;;;14.45;4.65;;;2.90;99.90;;;;;;5058024;28;20029;-68
2021/03/18 03:24:35;;;;;;;14.75;6.05;;;2.90;99.90;;;;;;5058126;28;20550;-68
2021/03/18 03:27:01;;;;;;;9.48;4.05;;;2.80;99.90;;;;;;5058386;28;20025;-68
2021/03/18 03:29:28;;;;;;;9.98;5.07;;;2.60;99.90;;;;;;5057761;28;20017;-68
2021/03/18 03:31:56;;;;;;;17.83;5.82;;;2.80;99.90;;;;;;5058363;28;20087;-68
2021/03/18 03:34:22;;;;;;;12.02;5.28;;;2.60;99.90;;;;;;5054136;28;20028;-68
2021/03/18 03:36:48;;;;;;;;;;;2.70;99.90;;;;;;5058167;28;20489;-68
2021/03/18 03:39:14;;;;;;;9.68;4.43;;;2.80;99.90;;;;;;5057895;28;20288;-68
2021/03/18 03:41:40;;;;;;;8.20;4.30;;;2.60;99.90;;;;;;5057823;28;20028;-68
2021/03/18 03:44:06;;;;;;;;;;;2.60;99.90;;;;;;5058263;28;20190;-68
2021/03/18 03:46:33;;;;;;;19.00;5.07;;;2.40;99.90;;;;;;5058015;28;19986;-68
2021/03/18 03:48:59;;;;;;;14.52;4.20;;;2.40;99.90;;;;;;5056403;28;20493;-68
2021/03/18 03:51:28;;;;;;;;;;;2.20;99.90;;;;;;5056584;28;20083;-67
2021/03/18 03:53:59;;;;;;;13.35;5.15;;;1.00;99.90;;;;;;5057812;28;19905;-68
2021/03/18 03:56:46;;;;;;;9.80;4.90;;;2.20;99.90;;;;;;5057819;28;20029;-68
2021/03/18 03:59:22;;;;;;;11.65;4.95;;;2.20;99.90;;;;;;5056065;28;20056;-68
2021/03/18 04:01:51;;;;;;;17.33;5.85;;;3.60;99.90;;;;;;5057586;28;20485;-67
2021/03/18 04:04:31;;;;;;;16.25;5.53;;;2.20;99.90;;;;;;5057868;28;20028;-68
2021/03/18 04:07:15;;;;;;;11.32;5.70;;;2.00;99.90;;;;;;5057151;28;20081;-68
2021/03/18 04:09:43;;;;;;;19.90;6.50;;;1.90;99.90;;;;;;5057620;28;20075;-67
2021/03/18 04:12:13;;;;;;;18.75;6.22;;;2.20;99.90;;;;;;5057357;28;20110;-68
2021/03/18 04:14:45;;;;;;;19.25;6.45;;;2.50;99.90;;;;;;5057552;28;20025;-67
2021/03/18 04:17:12;;;;;;;17.45;6.38;;;2.00;99.90;;;;;;5057536;28;20040;-67
2021/03/18 04:19:40;;;;;;;17.42;6.03;;;2.00;99.90;;;;;;5057331;28;20025;-68
2021/03/18 04:22:09;;;;;;;15.13;6.53;;;1.60;99.90;;;;;;5057021;28;20033;-68
2021/03/18 04:24:36;;;;;;;16.77;7.00;;;1.60;99.90;;;;;;5057159;28;20021;-68
2021/03/18 04:27:03;;;;;;;12.88;5.13;;;1.60;99.90;;;;;;5057399;28;20052;-67
2021/03/18 04:29:32;;;;;;;14.32;7.38;;;1.90;99.90;;;;;;5057038;28;20036;-67
2021/03/18 04:31:59;;;;;;;13.75;6.45;;;0.10;99.90;;;;;;5057393;28;20473;-67
2021/03/18 04:34:26;;;;;;;14.48;6.32;;;1.90;99.90;;;;;;5053856;28;20463;-67
2021/03/18 04:36:54;;;;;;;16.77;6.03;;;2.00;99.90;;;;;;5056989;28;20059;-68
2021/03/18 04:39:21;;;;;;;12.10;4.95;;;2.80;99.90;;;;;;5057153;28;20021;-67
2021/03/18 04:41:47;;;;;;;13.02;5.75;;;2.60;99.90;;;;;;5058163;28;20123;-68
2021/03/18 04:44:14;;;;;;;14.23;5.60;;;2.00;99.90;;;;;;5059928;28;20563;-68
2021/03/18 04:46:45;;;;;;;13.13;6.05;;;2.00;99.90;;;;;;5061509;28;20465;-68
2021/03/18 04:49:14;;;;;;;12.88;5.85;;;2.30;99.90;;;;;;5061389;28;20017;-68
2021/03/18 04:51:45;;;;;;;13.75;5.07;;;3.00;99.90;;;;;;5060752;28;20114;-68
2021/03/18 04:54:11;;;;;;;10.98;4.80;;;1.70;99.90;;;;;;5061076;28;20028;-68
2021/03/18 04:56:42;;;;;;;11.82;5.53;;;2.50;99.90;;;;;;5061119;28;20025;-68
2021/03/18 04:59:09;;;;;;;12.68;4.88;;;2.00;99.90;;;;;;5060731;28;20113;-68
2021/03/18 05:01:36;;;;;;;10.07;4.65;;;1.70;99.90;;;;;;5060957;28;20056;-67
2021/03/18 05:04:04;;;;;;;14.63;5.05;;;2.30;99.90;;;;;;5059559;28;20029;-67
2021/03/18 05:06:32;;;;;;;11.23;4.45;;;1.80;99.90;;;;;;5060556;28;20021;-68
2021/03/18 05:09:01;;;;;;;8.38;4.30;;;1.60;99.90;;;;;;5060702;28;20490;-68
2021/03/18 05:11:27;;;;;;;11.07;5.10;;;2.40;99.90;;;;;;5060694;28;20032;-68
2021/03/18 05:13:54;;;;;;;11.23;5.18;;;1.00;99.90;;;;;;5061070;28;20025;-68
2021/03/18 05:16:21;;;;;;;11.93;5.07;;;1.50;99.90;;;;;;5060666;28;20053;-68
2021/03/18 05:18:48;;;;;;;6.13;4.00;;;1.40;99.90;;;;;;5060963;28;20059;-68
2021/03/18 05:21:14;;;;;;;11.38;5.25;;;1.90;99.90;;;;;;5060067;28;20021;-68
2021/03/18 05:23:41;;;;;;;12.95;6.18;;;1.80;99.90;;;;;;5059224;28;20033;-68
2021/03/18 05:26:08;;;;;;;10.88;4.60;;;;;;;;;;5059149;28;20108;-68
2021/03/18 05:28:35;;;;;;;19.73;6.07;;;;;;;;;;5060503;28;20470;-68
2021/03/18 05:31:01;;;;;;;15.77;6.50;;;1.40;99.90;;;;;;5060388;28;20021;-68
2021/03/18 05:33:28;;;;;;;16.38;6.30;;;2.00;99.90;;;;;;5060459;28;20021;-68
2021/03/18 05:35:54;;;;;;;12.50;4.97;;;1.60;99.90;;;;;;5056379;28;20370;-66
2021/03/18 05:38:20;;;;;;;;;;;2.00;99.90;;;;;;5054322;28;20032;-67
2021/03/18 05:40:51;;;;;;;14.00;6.28;;;2.30;99.90;;;;;;5057808;28;19905;-66
2021/03/18 05:43:18;;;;;;;16.08;4.80;;;3.10;99.90;;;;;;5059722;28;20024;-67
2021/03/18 05:45:43;;;;;;;;;;;2.10;99.90;;;;;;5075666;28;20099;-67
2021/03/18 05:48:12;;;;;;;13.57;6.28;;;1.80;99.90;;;;;;5080075;28;19943;-67
2021/03/18 05:50:41;;;;;;;14.02;5.78;;;2.40;99.90;;;;;;5066098;28;20021;-68
2021/03/18 05:53:08;;;;;;;15.57;6.32;;;2.20;99.90;;;;;;5059344;28;20384;-67
2021/03/18 05:55:35;;;;;;;17.17;5.88;;;2.10;99.90;;;;;;5060186;28;20025;-67
2021/03/18 05:58:02;;;;;;;12.20;5.63;;;3.00;99.90;;;;;;5070280;28;20028;-68
2021/03/18 06:00:36;;;;;;;12.85;5.47;;;2.40;99.90;;;;;;5079326;28;20037;-74
2021/03/18 06:03:02;;;;;;;21.63;7.40;;;2.40;99.90;;;;;;5077706;28;20140;-68
2021/03/18 06:05:27;;;;;;;;;;;1.90;99.90;;;;;;5078504;28;20044;-67
2021/03/18 06:07:53;;;;;;;21.70;6.68;;;2.20;99.90;;;;;;5079448;28;19950;-68
2021/03/18 06:10:22;;;;;;;;;;;1.60;99.90;;;;;;5078773;28;20027;-67
2021/03/18 06:12:53;;;;;;;19.70;5.88;;;1.70;99.90;;;;;;5078474;28;20290;-67
2021/03/18 06:15:20;;;;;;;13.82;5.60;;;1.80;99.90;;;;;;5079574;28;20021;-67
2021/03/18 06:17:47;;;;;;;19.90;7.20;;;2.30;99.90;;;;;;5079757;28;20021;-68
2021/03/18 06:20:20;;;;;;;12.77;5.95;;;2.70;99.90;;;;;;5079562;28;20070;-68
2021/03/18 06:22:48;;;;;;;13.48;6.10;;;2.00;99.90;;;;;;5079182;28;20031;-67
2021/03/18 06:25:24;;;;;;;16.95;6.03;;;2.30;99.90;;;;;;5059716;28;20021;-67
2021/03/18 06:28:11;;;;;;;10.43;5.30;;;1.90;99.90;;;;;;5059461;28;20393;-67
2021/03/18 06:30:38;;;;;;;20.52;10.02;;;2.90;99.90;;;;;;5059396;28;20543;-67
2021/03/18 06:33:26;;;;;;;11.20;5.50;;;2.30;99.90;;;;;;5059288;28;20052;-67
2021/03/18 06:35:53;;;;;;;23.10;7.03;;;2.20;99.90;;;;;;5054486;28;20033;-67
2021/03/18 06:38:26;;;;;;;12.23;5.93;;;2.40;99.90;;;;;;5059325;28;20048;-67
2021/03/18 06:40:52;;;;;;;15.70;5.57;;;3.10;99.90;;;;;;5059487;28;20096;-67
2021/03/18 06:43:18;;;;;;;24.48;5.90;;;3.00;99.90;;;;;;5057834;28;20404;-68
2021/03/18 06:45:44;;;;;;;;;;;3.00;99.90;;;;;;5059694;28;20091;-68
2021/03/18 06:48:11;;;;;;;15.70;5.90;;;2.90;99.90;;;;;;5057826;28;19904;-68
2021/03/18 06:50:42;;;;;;;17.13;6.13;;;3.00;99.90;;;;;;5058893;28;20025;-68
2021/03/18 06:53:18;;;;;;;20.58;6.13;;;3.30;99.90;;;;;;5057749;28;20025;-68
2021/03/18 06:55:44;;;;;;;25.98;7.45;;;3.40;99.90;;;;;;5058845;28;20032;-68
2021/03/18 06:58:17;;;;;;;;;;;3.50;99.90;;;;;;5059415;28;20115;-68
2021/03/18 07:00:46;;;;;;;25.60;6.70;;;3.50;99.90;;;;;;5057078;28;20384;-68
2021/03/18 07:03:33;;;;;;;18.63;7.35;;;3.70;99.90;;;;;;5058688;28;20032;-67
2021/03/18 07:06:01;;;;;;;15.85;6.50;;;3.80;99.90;;;;;;5058047;28;20014;-68
2021/03/18 07:08:35;;;;;;;16.35;7.07;;;4.00;99.90;;;;;;5057320;28;20393;-68
2021/03/18 07:11:15;;;;;;;29.67;7.60;;;4.10;99.90;;;;;;5058748;28;20021;-68
2021/03/18 07:13:44;;;;;;;21.42;6.45;;;4.30;99.90;;;;;;5058498;28;20025;-68
2021/03/18 07:16:11;;;;;;;19.55;7.78;;;4.60;99.90;;;;;;5058584;28;20029;-68
2021/03/18 07:18:38;;;;;;;20.17;7.40;;;4.60;99.90;;;;;;5058385;28;20028;-67
2021/03/18 07:21:13;;;;;;;23.83;6.75;;;4.80;99.90;;;;;;5057977;28;20062;-67
2021/03/18 07:23:42;;;;;;;22.85;6.25;;;4.70;99.90;;;;;;5058224;28;20402;-67
2021/03/18 07:26:22;;;;;;;21.52;6.80;;;5.00;99.90;;;;;;5058418;28;20045;-67
2021/03/18 07:28:55;;;;;;;24.67;7.22;;;5.10;99.90;;;;;;5058589;28;20071;-67
2021/03/18 07:31:21;;;;;;;22.98;6.55;;;5.20;99.90;;;;;;5058148;28;20021;-67
2021/03/18 07:33:50;;;;;;;22.40;6.75;;;5.50;99.90;;;;;;5057990;28;20079;-67
2021/03/18 07:36:16;;;;;;;17.98;6.03;;;5.70;99.90;;;;;;5054729;28;20025;-67
2021/03/18 07:38:44;;;;;;;16.35;5.88;;;5.50;99.90;;;;;;5058153;28;20025;-67
2021/03/18 07:41:17;;;;;;;13.90;6.07;;;5.70;99.90;;;;;;5057970;28;20021;-67
2021/03/18 07:43:46;;;;;;;19.33;6.22;;;5.70;99.90;;;;;;5057972;28;20055;-67
2021/03/18 07:46:14;;;;;;;21.60;6.43;;;5.80;99.90;;;;;;5057842;28;20169;-67
2021/03/18 07:48:43;;;;;;;23.30;7.07;;;5.80;99.90;;;;;;5056657;28;20519;-67
2021/03/18 07:51:10;;;;;;;22.98;6.57;;;6.10;99.90;;;;;;5057704;28;20013;-67
2021/03/18 07:53:38;;;;;;;16.73;5.30;;;6.40;99.90;;;;;;5057828;28;20047;-67
2021/03/18 07:56:09;;;;;;;17.27;5.07;;;6.50;99.90;;;;;;5056505;28;20036;-67
2021/03/18 07:58:38;;;;;;;23.13;7.05;;;7.00;99.90;;;;;;5058078;28;20098;-67
2021/03/18 08:01:05;;;;;;;15.52;6.28;;;7.10;99.90;;;;;;5056239;28;20098;-67
2021/03/18 08:03:31;;;;;;;21.60;5.93;;;7.30;99.90;;;;;;5057356;28;20032;-67
2021/03/18 08:05:58;;;;;;;24.02;6.38;;;7.40;99.90;;;;;;5057417;28;20029;-67
2021/03/18 08:08:44;;;;;;;15.13;5.95;;;7.70;99.90;;;;;;5057376;28;20029;-67
2021/03/18 08:11:13;;;;;;;18.80;5.68;;;8.10;99.90;;;;;;5057642;28;20393;-68
2021/03/18 08:13:44;;;;;;;16.55;5.45;;;8.40;99.90;;;;;;5057510;28;20063;-68
2021/03/18 08:16:29;;;;;;;17.17;5.32;;;8.60;99.90;;;;;;5056551;28;20029;-68
2021/03/18 08:18:55;;;;;;;17.08;5.13;;;9.00;99.90;;;;;;5057620;28;20082;-68
2021/03/18 08:21:36;;;;;;;21.40;5.65;;;9.20;99.90;;;;;;5056983;28;20068;-68
2021/03/18 08:24:04;;;;;;;14.63;6.10;;;9.40;99.90;;;;;;5057482;28;20039;-68
2021/03/18 08:26:44;;;;;;;18.10;6.55;;;9.60;99.90;;;;;;5056247;28;20059;-68
2021/03/18 08:29:47;;;;;;;26.48;6.68;;;9.90;99.90;;;;;;5055904;28;20021;-68
2021/03/18 08:32:30;;;;;;;20.42;6.07;;;10.10;99.90;;;;;;5045278;28;20048;-68
2021/03/18 08:35:06;;;;;;;16.48;5.78;;;10.40;99.90;;;;;;5053320;28;20081;-68
2021/03/18 08:37:42;;;;;;;17.75;6.78;;;10.60;99.90;;;;;;5057080;28;20029;-68
2021/03/18 08:40:08;;;;;;;17.25;5.47;;;10.80;99.90;;;;;;5057136;28;20075;-68
2021/03/18 08:42:36;;;;;;;;;;;10.90;99.90;;;;;;5057584;28;20021;-68
2021/03/18 08:45:08;;;;;;;21.65;6.45;;;11.00;99.90;;;;;;5057358;28;19905;-68
2021/03/18 08:48:10;;;;;;;18.40;6.05;;;11.10;99.90;;;;;;5057211;28;20028;-68
2021/03/18 08:50:36;;;;;;;17.95;5.47;;;11.10;99.90;;;;;;5056794;28;20389;-68
2021/03/18 08:53:23;;;;;;;17.70;5.35;;;11.20;99.90;;;;;;5057081;28;20029;-68
2021/03/18 08:55:50;;;;;;;22.67;6.53;;;11.20;99.90;;;;;;5057294;28;20504;-68
2021/03/18 08:58:16;;;;;;;19.70;6.45;;;11.50;99.90;;;;;;5057308;28;20029;-68
2021/03/18 09:00:45;;;;;;;18.70;5.90;;;11.50;99.90;;;;;;5056866;28;20049;-68
2021/03/18 09:03:20;;;;;;;15.57;5.78;;;11.50;99.90;;;;;;5056879;28;20098;-68
2021/03/18 09:05:56;;;;;;;17.25;5.70;;;11.70;99.90;;;;;;5056669;28;20021;-68
2021/03/18 09:08:35;;;;;;;20.35;5.93;;;11.70;99.90;;;;;;5056116;28;20025;-68
2021/03/18 09:11:01;;;;;;;25.33;6.93;;;11.70;99.90;;;;;;5057064;28;20067;-68
2021/03/18 09:13:27;;;;;;;21.38;6.90;;;11.70;99.90;;;;;;5056137;28;20056;-68
2021/03/18 09:15:53;;;;;;;22.48;6.68;;;11.60;99.90;;;;;;5057105;28;20028;-68
2021/03/18 09:18:30;;;;;;;19.35;6.22;;;11.60;99.90;;;;;;5056653;28;20037;-68
2021/03/18 09:21:07;;;;;;;19.17;5.47;;;11.80;99.90;;;;;;5056563;28;20639;-68
2021/03/18 09:23:35;;;;;;;21.40;7.22;;;11.90;99.90;;;;;;5056836;28;20029;-68
2021/03/18 09:26:06;;;;;;;17.60;6.05;;;11.60;99.90;;;;;;5057068;28;20084;-68
2021/03/18 09:28:36;;;;;;;24.10;7.40;;;11.30;99.90;;;;;;5058921;28;20013;-68
2021/03/18 09:31:03;;;;;;;21.52;7.55;;;11.10;99.90;;;;;;5054244;28;20118;-68
2021/03/18 09:33:35;;;;;;;19.02;6.18;;;11.20;99.90;;;;;;5060643;28;20021;-68
2021/03/18 09:36:21;;;;;;;17.92;7.07;;;11.20;99.90;;;;;;5055920;28;20029;-68
2021/03/18 09:39:03;;;;;;;24.35;6.88;;;11.00;99.90;;;;;;5058976;28;20025;-68
2021/03/18 09:41:32;;;;;;;21.98;8.68;;;11.50;99.90;;;;;;5060394;28;20084;-68
2021/03/18 09:44:13;;;;;;;25.35;8.20;;;11.80;99.90;;;;;;5058916;28;20067;-68
2021/03/18 09:46:49;;;;;;;18.45;5.75;;;11.80;99.90;;;;;;5058961;28;20044;-68
2021/03/18 09:49:15;;;;;;;21.73;6.20;;;11.90;99.90;;;;;;5058706;28;20028;-68
2021/03/18 09:51:43;;;;;;;18.10;5.85;;;11.80;99.90;;;;;;5058393;28;20092;-68
2021/03/18 09:54:13;;;;;;;24.60;7.50;;;11.80;99.90;;;;;;5059983;28;20041;-68
2021/03/18 09:56:41;;;;;;;19.15;6.55;;;11.40;99.90;;;;;;5060209;28;20017;-68
2021/03/18 09:59:09;;;;;;;16.80;6.32;;;11.30;99.90;;;;;;5059715;28;20021;-69
2021/03/18 10:01:35;;;;;;;26.88;6.30;;;11.70;99.90;;;;;;5060023;28;20499;-68
2021/03/18 10:04:11;;;;;;;19.65;6.40;;;11.60;99.90;;;;;;5059783;28;20040;-68
2021/03/18 10:06:48;;;;;;;25.88;5.60;;;11.40;99.90;;;;;;5059629;28;20029;-68
2021/03/18 10:09:26;;;;;;;21.60;6.57;;;11.60;99.90;;;;;;5059905;28;20029;-68
2021/03/18 10:11:55;;;;;;;20.17;5.47;;;11.70;99.90;;;;;;5059771;28;20033;-68
2021/03/18 10:14:35;;;;;;;27.75;6.13;;;12.00;99.90;;;;;;5059873;28;20028;-68
2021/03/18 10:17:05;;;;;;;20.42;5.35;;;11.70;99.90;;;;;;5059747;28;20115;-68
2021/03/18 10:19:34;;;;;;;35.67;8.18;;;11.50;99.90;;;;;;5059556;28;20032;-68
2021/03/18 10:22:01;;;;;;;23.63;8.38;;;11.30;99.90;;;;;;5059194;28;20029;-68
2021/03/18 10:24:27;;;;;;;27.42;10.77;;;11.30;99.90;;;;;;5059354;28;20091;-68
2021/03/18 10:26:53;;;;;;;30.38;14.85;;;10.90;99.90;;;;;;5059376;28;20028;-68
2021/03/18 10:29:19;;;;;;;31.27;15.27;;;10.80;99.90;;;;;;5057991;28;20040;-68
2021/03/18 10:31:45;;;;;;;33.28;15.20;;;10.50;99.90;;;;;;5045995;28;20040;-68
2021/03/18 10:34:23;;;;;;;24.20;9.05;;;10.50;99.90;;;;;;5055800;28;20080;-68
2021/03/18 10:36:49;;;;;;;23.40;7.03;;;10.70;99.90;;;;;;5047196;28;20025;-68
2021/03/18 10:39:15;;;;;;;22.55;6.97;;;10.60;99.90;;;;;;5056844;28;20028;-68
2021/03/18 10:41:54;;;;;;;17.60;4.95;;;10.50;99.90;;;;;;5058164;28;20083;-68
2021/03/18 10:44:21;;;;;;;20.38;6.30;;;10.50;99.90;;;;;;5059538;28;20028;-68
2021/03/18 10:46:48;;;;;;;20.45;8.13;;;10.50;99.90;;;;;;5059275;28;20025;-68
2021/03/18 10:49:15;;;;;;;18.52;5.53;;;10.70;99.90;;;;;;5058907;28;20021;-68
2021/03/18 10:51:45;;;;;;;19.08;4.50;;;11.20;99.90;;;;;;5058681;28;20013;-68
2021/03/18 10:54:19;;;;;;;16.55;5.85;;;11.60;99.90;;;;;;5058870;28;20099;-68
2021/03/18 10:56:45;;;;;;;12.82;4.63;;;12.20;99.90;;;;;;5059012;28;20155;-68
2021/03/18 10:59:21;;;;;;;15.20;5.45;;;12.30;99.90;;;;;;5057263;28;20057;-68
2021/03/18 11:01:47;;;;;;;15.85;6.18;;;13.10;99.90;;;;;;5059034;28;20016;-68
2021/03/18 11:04:14;;;;;;;20.48;6.63;;;13.50;99.90;;;;;;5058599;28;20028;-69
2021/03/18 11:06:51;;;;;;;15.18;4.15;;;14.20;99.90;;;;;;5058451;28;20036;-68
2021/03/18 11:09:18;;;;;;;11.98;3.67;;;15.10;99.90;;;;;;5058937;28;20052;-69
2021/03/18 11:11:58;;;;;;;11.32;3.20;;;15.10;99.90;;;;;;5058500;28;20058;-69
2021/03/18 11:14:27;;;;;;;12.90;3.40;;;15.70;99.90;;;;;;5058550;28;20021;-69
2021/03/18 11:17:07;;;;;;;12.27;3.65;;;15.20;99.90;;;;;;5058439;28;20028;-69
2021/03/18 11:19:33;;;;;;;9.63;3.25;;;14.30;99.90;;;;;;5058439;28;20096;-69
2021/03/18 11:22:02;;;;;;;12.32;3.65;;;14.60;99.90;;;;;;5057868;28;20048;-69
2021/03/18 11:24:28;;;;;;;11.50;3.45;;;15.80;99.90;;;;;;5058470;28;20078;-69
2021/03/18 11:26:55;;;;;;;18.08;4.05;;;16.40;99.90;;;;;;5057050;28;20029;-69
2021/03/18 11:29:26;;;;;;;13.30;3.38;;;16.10;99.90;;;;;;5058598;28;20021;-69
2021/03/18 11:31:55;;;;;;;9.00;3.03;;;15.90;99.90;;;;;;5058591;28;20021;-69
2021/03/18 11:34:23;;;;;;;11.95;2.97;;;15.60;99.90;;;;;;5054428;28;20022;-68
2021/03/18 11:36:52;;;;;;;9.73;3.13;;;14.90;99.90;;;;;;5057852;28;20025;-69
2021/03/18 11:39:21;;;;;;;8.85;2.35;;;14.50;99.90;;;;;;5056617;28;20033;-69
2021/03/18 11:41:49;;;;;;;9.55;2.72;;;14.10;99.90;;;;;;5056925;28;20485;-69
2021/03/18 11:44:15;;;;;;;9.35;2.70;;;13.80;99.90;;;;;;5058512;28;20481;-69
2021/03/18 11:46:41;;;;;;;13.15;3.30;;;13.40;99.90;;;;;;5058066;28;20044;-68
2021/03/18 11:49:07;;;;;;;16.75;3.22;;;13.30;99.90;;;;;;5057795;28;20033;-68
2021/03/18 11:51:33;;;;;;;7.40;2.47;;;13.40;99.90;;;;;;5057346;28;20052;-69
2021/03/18 11:53:59;;;;;;;9.98;2.40;;;13.40;99.90;;;;;;5057779;28;20048;-68
2021/03/18 11:56:25;;;;;;;6.75;2.17;;;13.90;99.90;;;;;;5057821;28;20062;-69
2021/03/18 11:58:51;;;;;;;7.78;1.92;;;14.30;99.90;;;;;;5057695;28;20070;-68
2021/03/18 12:01:17;;;;;;;7.88;2.20;;;14.20;99.90;;;;;;5057506;28;20052;-69
2021/03/18 12:03:43;;;;;;;7.07;2.50;;;15.00;99.90;;;;;;5056176;28;20033;-69
2021/03/18 12:06:09;;;;;;;12.13;3.10;;;16.10;99.90;;;;;;5057355;28;20021;-69
2021/03/18 12:08:35;;;;;;;9.05;3.33;;;17.10;99.90;;;;;;5057587;28;20025;-69
2021/03/18 12:11:03;;;;;;;7.90;2.88;;;17.40;97.40;;;;;;5057554;28;20051;-69
2021/03/18 12:13:29;;;;;;;13.50;2.70;;;17.00;96.10;;;;;;5056398;28;20029;-69
2021/03/18 12:15:55;;;;;;;12.25;4.55;;;16.50;96.80;;;;;;5057436;28;20056;-69
2021/03/18 12:18:21;;;;;;;12.70;5.47;;;16.70;97.30;;;;;;5057461;28;20048;-69
2021/03/18 12:20:47;;;;;;;6.80;3.30;;;16.80;97.20;;;;;;5057049;28;20029;-69
2021/03/18 12:23:13;;;;;;;5.05;2.17;;;17.10;95.80;;;;;;5057245;28;20021;-69
2021/03/18 12:25:39;;;;;;;10.00;2.13;;;17.20;95.60;;;;;;5057515;28;20021;-69
2021/03/18 12:28:05;;;;;;;4.43;1.67;;;17.60;95.10;;;;;;5057408;28;20098;-69
2021/03/18 12:30:31;;;;;;;4.70;2.00;;;17.10;94.30;;;;;;5057256;28;20100;-69
2021/03/18 12:32:57;;;;;;;7.35;2.85;;;16.20;95.10;;;;;;5057187;28;20029;-69
2021/03/18 12:35:23;;;;;;;9.38;2.65;;;15.80;96.40;;;;;;5053776;28;20031;-69
2021/03/18 12:37:51;;;;;;;8.85;2.13;;;15.80;96.30;;;;;;5056838;28;20033;-69
2021/03/18 12:40:18;;;;;;;9.30;2.70;;;15.70;94.70;;;;;;5055847;28;20025;-69
2021/03/18 12:42:44;;;;;;;8.63;2.30;;;15.40;94.90;;;;;;5057115;28;20100;-69
2021/03/18 12:45:13;;;;;;;8.77;2.50;;;15.10;94.70;;;;;;5057193;28;20024;-69
2021/03/18 12:47:40;;;;;;;5.10;1.65;;;15.20;96.60;;;;;;5057077;28;20029;-69
2021/03/18 12:50:09;;;;;;;5.75;1.80;;;16.50;95.10;;;;;;5055988;28;20025;-69
2021/03/18 12:52:35;;;;;;;6.20;2.15;;;17.50;92.50;;;;;;5056911;28;20025;-69
2021/03/18 12:55:03;;;;;;;7.70;2.05;;;18.10;91.30;;;;;;5056028;28;20116;-69
2021/03/18 12:57:29;;;;;;;6.80;1.63;;;17.80;89.10;;;;;;5057207;28;20029;-69
2021/03/18 12:59:55;;;;;;;6.88;1.70;;;17.70;90.40;;;;;;5057038;28;20049;-69
2021/03/18 13:02:21;;;;;;;5.72;1.85;;;17.70;90.50;;;;;;5055929;28;20037;-69
2021/03/18 13:04:46;;;;;;;7.82;2.33;;;18.40;91.10;;;;;;5059669;28;20013;-69